Time;durP1;ratioP1;P1;durP2;ratioP2;P2;SDS_P1;SDS_P2;PMS_P1;PMS_P2;Temp;Humidity;BMP_temperature;BMP_pressure;BME280_temperature;BME280_humidity;BME280_pressure;Samples;Min_cycle;Max_cycle;Signal;HPM_P1;HPM_P2
2022/10/27 00:01:42;;;;;;;;;;;;;;;9.63;100.00;100031.03;10169938;23;20357;-81
2022/10/27 00:05:45;;;;;;;;;;;;;;;9.58;100.00;100030.97;10185568;23;20015;-80
2022/10/27 00:09:46;;;;;;;;;;;;;;;9.50;100.00;100026.56;10161071;23;19999;-79
2022/10/27 00:13:49;;;;;;;;;;;;;;;9.44;100.00;100019.59;10209782;23;20343;-80
2022/10/27 00:17:50;;;;;;;;;;;;;;;9.45;100.00;100013.56;10178749;23;20371;-83
2022/10/27 00:21:51;;;;;;;;;;;;;;;9.34;100.00;100005.69;10185704;23;19924;-80
2022/10/27 00:25:53;;;;;;;;;;;;;;;9.33;100.00;100003.94;10186980;23;20026;-81
2022/10/27 00:29:57;;;;;;;;;;;;;;;9.37;100.00;100008.31;10210879;23;19920;-80
2022/10/27 00:33:59;;;;;;;;;;;;;;;9.37;100.00;100003.13;10178781;23;19936;-81
2022/10/27 00:38:00;;;;;;;;;;;;;;;9.36;100.00;99992.75;10137180;23;20060;-81
2022/10/27 00:42:02;;;;;;;;;;;;;;;9.36;100.00;99984.97;10160311;23;20039;-82
2022/10/27 00:46:24;;;;;;;;;;;;;;;9.36;100.00;99991.03;10153737;23;19935;-81
2022/10/27 00:50:26;;;;;;;;;;;;;;;9.30;100.00;99995.25;10141472;23;19963;-81
2022/10/27 00:54:30;;;;;;;;;;;;;;;9.29;100.00;100003.88;10161484;23;19932;-81
2022/10/27 00:58:33;;;;;;;;;;;;;;;9.29;100.00;99998.72;10160949;23;19968;-82
2022/10/27 01:02:35;;;;;;;;;;;;;;;9.29;100.00;99998.72;10156252;23;19998;-82
2022/10/27 01:06:36;;;;;;;;;;;;;;;9.25;100.00;100000.41;10188164;23;19924;-82
2022/10/27 01:10:39;;;;;;;;;;;;;;;9.24;100.00;100005.56;10187119;23;20622;-81
2022/10/27 01:14:41;;;;;;;;;;;;;;;9.23;100.00;100009.00;10186460;23;19925;-81
2022/10/27 01:18:47;;;;;;;;;;;;;;;9.13;100.00;100013.22;10181537;23;19991;-81
2022/10/27 01:23:08;;;;;;;;;;;;;;;9.07;100.00;100007.97;10162197;23;20015;-81
2022/10/27 01:27:16;;;;;;;;;;;;;;;9.04;100.00;100011.41;10163821;23;19974;-81
2022/10/27 01:31:33;;;;;;;;;;;;;;;8.99;100.00;100018.25;10183102;23;19955;-81
2022/10/27 01:35:37;;;;;;;;;;;;;;;8.97;100.00;100024.25;10163121;23;19936;-81
2022/10/27 01:39:44;;;;;;;;;;;;;;;8.95;100.00;100021.63;10114155;23;20016;-81
2022/10/27 01:43:48;;;;;;;;;;;;;;;8.91;100.00;100025.03;10111889;23;19965;-81
2022/10/27 01:47:51;;;;;;;;;;;;;;;8.94;100.00;100031.97;10129195;23;20781;-81
2022/10/27 01:52:02;;;;;;;;;;;;;;;8.91;100.00;100027.63;10111281;23;19987;-81
2022/10/27 01:56:04;;;;;;;;;;;;;;;8.93;100.00;100025.06;10139166;23;19956;-82
2022/10/27 02:00:07;;;;;;;;;;;;;;;8.91;100.00;100019.00;10180091;23;19925;-80
2022/10/27 02:04:25;;;;;;;;;;;;;;;8.91;100.00;100017.28;10138583;23;20003;-81
2022/10/27 02:08:49;;;;;;;;;;;;;;;8.95;100.00;100007.81;10165412;23;19936;-81
2022/10/27 02:12:51;;;;;;;;;;;;;;;8.95;100.00;100007.81;10134164;23;19921;-81
2022/10/27 02:16:56;;;;;;;;;;;;;;;8.92;100.00;100011.25;10157630;23;20007;-81
2022/10/27 02:21:00;;;;;;;;;;;;;;;8.92;100.00;100005.19;10139385;23;19948;-81
2022/10/27 02:25:07;;;;;;;;;;;;;;;8.87;100.00;99993.91;10147313;23;19931;-82
2022/10/27 02:29:15;;;;;;;;;;;;;;;8.76;100.00;99999.81;10144283;23;19928;-81
2022/10/27 02:33:17;;;;;;;;;;;;;;;8.69;100.00;99994.56;10138417;23;19957;-81
2022/10/27 02:37:30;;;;;;;;;;;;;;;8.63;100.00;99986.72;10168803;23;19925;-81
2022/10/27 02:41:32;;;;;;;;;;;;;;;8.56;100.00;99982.31;10191250;23;19970;-80
2022/10/27 02:45:33;;;;;;;;;;;;;;;8.54;100.00;99984.00;10161368;23;19960;-81
2022/10/27 02:49:34;;;;;;;;;;;;;;;8.45;100.00;99980.47;10193230;23;19928;-81
2022/10/27 02:53:37;;;;;;;;;;;;;;;8.45;100.00;99979.59;10194068;23;19951;-80
2022/10/27 02:57:41;;;;;;;;;;;;;;;8.37;100.00;99974.28;10192727;23;19924;-81
2022/10/27 03:01:42;;;;;;;;;;;;;;;8.34;100.00;99971.66;10188722;23;20228;-81
2022/10/27 03:05:44;;;;;;;;;;;;;;;8.27;100.00;99969.81;10166643;23;20263;-81
2022/10/27 03:09:49;;;;;;;;;;;;;;;8.27;100.00;99966.38;10167454;23;20461;-81
2022/10/27 03:13:50;;;;;;;;;;;;;;;8.19;100.00;99964.53;10212303;23;19925;-81
2022/10/27 03:17:52;;;;;;;;;;;;;;;8.13;100.00;99958.41;10135002;23;19991;-81
2022/10/27 03:21:53;;;;;;;;;;;;;;;8.13;100.00;99955.81;10188466;23;20007;-81
2022/10/27 03:25:55;;;;;;;;;;;;;;;8.07;100.00;99964.34;10190812;23;20003;-81
2022/10/27 03:30:00;;;;;;;;;;;;;;;8.13;100.00;99956.69;10189045;23;20308;-80
2022/10/27 03:34:01;;;;;;;;;;;;;;;8.14;100.00;99966.19;10182993;23;19935;-80
2022/10/27 03:38:03;;;;;;;;;;;;;;;8.13;100.00;99966.16;10184261;23;20299;-80
2022/10/27 03:42:05;;;;;;;;;;;;;;;8.12;100.00;99965.28;10184538;23;19931;-80
2022/10/27 03:46:07;;;;;;;;;;;;;;;8.15;100.00;99969.63;10128919;23;19920;-80
2022/10/27 03:50:09;;;;;;;;;;;;;;;8.10;100.00;99959.22;10159517;23;20020;-80
2022/10/27 03:54:10;;;;;;;;;;;;;;;8.07;100.00;99964.34;10136283;23;20257;-80
2022/10/27 03:58:12;;;;;;;;;;;;;;;8.04;100.00;99964.28;10159341;23;19924;-80
2022/10/27 04:02:17;;;;;;;;;;;;;;;8.00;100.00;99969.41;10131199;23;19936;-80
2022/10/27 04:06:18;;;;;;;;;;;;;;;7.97;100.00;99966.78;10135791;23;19924;-80
2022/10/27 04:10:20;;;;;;;;;;;;;;;7.91;100.00;99964.09;10187457;23;19921;-80
2022/10/27 04:14:21;;;;;;;;;;;;;;;7.88;100.00;99964.91;10184672;23;19921;-80
2022/10/27 04:18:23;;;;;;;;;;;;;;;7.86;100.00;99956.25;10179493;23;19978;-80
2022/10/27 04:22:25;;;;;;;;;;;;;;;7.83;100.00;99962.25;10159848;23;19929;-80
2022/10/27 04:26:26;;;;;;;;;;;;;;;7.80;100.00;99964.78;10185887;23;19974;-80
2022/10/27 04:30:27;;;;;;;;;;;;;;;7.72;100.00;99965.50;10154218;23;19924;-80
2022/10/27 04:34:29;;;;;;;;;;;;;;;7.70;100.00;99968.06;10161171;23;19925;-80
2022/10/27 04:38:30;;;;;;;;;;;;;;;7.72;100.00;99965.50;10159388;23;20003;-80
2022/10/27 04:42:36;;;;;;;;;;;;;;;7.69;100.00;99963.75;10208747;23;19935;-80
2022/10/27 04:46:38;;;;;;;;;;;;;;;7.71;100.00;99963.75;10153168;23;19925;-80
2022/10/27 04:50:39;;;;;;;;;;;;;;;7.66;100.00;99968.88;10134287;23;20272;-80
2022/10/27 04:54:40;;;;;;;;;;;;;;;7.64;100.00;99970.56;10186946;23;20620;-80
2022/10/27 04:58:42;;;;;;;;;;;;;;;7.62;100.00;99972.25;10159200;23;20015;-80
2022/10/27 05:02:43;;;;;;;;;;;;;;;7.63;100.00;99975.69;10172088;23;19975;-80
2022/10/27 05:06:45;;;;;;;;;;;;;;;7.62;100.00;99973.97;10183793;23;19924;-80
2022/10/27 05:10:46;;;;;;;;;;;;;;;7.59;100.00;99967.03;10163370;23;20256;-80
2022/10/27 05:14:47;;;;;;;;;;;;;;;7.58;100.00;99970.47;10136682;23;19921;-80
2022/10/27 05:18:48;;;;;;;;;;;;;;;7.56;100.00;99965.28;10189845;23;20007;-78
2022/10/27 05:22:50;;;;;;;;;;;;;;;7.55;100.00;99973.00;10205295;23;19954;-78
2022/10/27 05:26:51;;;;;;;;;;;;;;;7.56;100.00;99969.56;10205240;23;19924;-78
2022/10/27 05:30:57;;;;;;;;;;;;;;;7.55;100.00;99970.41;10198127;23;19924;-79
2022/10/27 05:34:58;;;;;;;;;;;;;;;7.53;100.00;99974.66;10204957;23;19920;-78
2022/10/27 05:39:00;;;;;;;;;;;;;;;7.53;100.00;99960.03;10181272;23;19932;-79
2022/10/27 05:43:02;;;;;;;;;;;;;;;7.50;100.00;99964.28;10182274;23;19966;-78
2022/10/27 05:47:04;;;;;;;;;;;;;;;7.51;100.00;99966.00;10153508;23;19925;-78
2022/10/27 05:51:06;;;;;;;;;;;;;;;7.48;100.00;99964.25;10179148;23;20011;-78
2022/10/27 05:55:08;;;;;;;;;;;;;;;7.46;100.00;99970.25;10180268;23;19979;-78
2022/10/27 05:59:12;;;;;;;;;;;;;;;7.44;100.00;99971.94;10130559;23;19925;-78
2022/10/27 06:03:23;;;;;;;;;;;;;;;7.43;100.00;99973.66;10173931;23;20364;-78
2022/10/27 06:07:24;;;;;;;;;;;;;;;7.43;100.00;99978.81;10154470;23;19978;-79
2022/10/27 06:11:26;;;;;;;;;;;;;;;7.45;100.00;99982.28;10180289;23;19933;-78
2022/10/27 06:15:28;;;;;;;;;;;;;;;7.47;100.00;99984.91;10123389;23;19925;-78
2022/10/27 06:19:29;;;;;;;;;;;;;;;7.44;100.00;99984.84;10129816;23;19951;-79
2022/10/27 06:23:30;;;;;;;;;;;;;;;7.40;100.00;99995.97;10178795;23;19920;-79
2022/10/27 06:27:32;;;;;;;;;;;;;;;7.46;100.00;99998.66;10155555;23;19974;-79
2022/10/27 06:31:33;;;;;;;;;;;;;;;7.55;100.00;99998.84;10119821;23;19939;-79
2022/10/27 06:35:34;;;;;;;;;;;;;;;7.58;100.00;99994.59;10101557;23;19983;-79
2022/10/27 06:39:36;;;;;;;;;;;;;;;7.63;100.00;99988.63;10053226;23;20549;-79
2022/10/27 06:43:37;;;;;;;;;;;;;;;7.63;100.00;99994.66;10055686;23;19921;-79
2022/10/27 06:47:38;;;;;;;;;;;;;;;7.67;100.00;99998.16;10051270;23;19925;-80
2022/10/27 06:51:39;;;;;;;;;;;;;;;7.72;100.00;100005.16;10082012;23;20367;-78
2022/10/27 06:55:41;;;;;;;;;;;;;;;7.76;100.00;100004.38;10053805;23;19987;-78
2022/10/27 06:59:42;;;;;;;;;;;;;;;7.81;100.00;100002.72;10078656;23;19988;-79
2022/10/27 07:03:43;;;;;;;;;;;;;;;7.88;100.00;100016.59;10111496;23;19925;-78
2022/10/27 07:07:46;;;;;;;;;;;;;;;7.93;100.00;100014.13;10127812;23;19925;-78
2022/10/27 07:11:47;;;;;;;;;;;;;;;8.04;100.00;100025.50;10101618;23;19956;-78
2022/10/27 07:15:49;;;;;;;;;;;;;;;8.12;100.00;100024.78;10138968;23;19929;-78
2022/10/27 07:19:50;;;;;;;;;;;;;;;8.25;100.00;100025.81;10054071;23;20325;-78
2022/10/27 07:23:52;;;;;;;;;;;;;;;8.41;100.00;100032.13;10054115;23;19929;-78
2022/10/27 07:27:54;;;;;;;;;;;;;;;8.51;100.00;100030.56;10080074;23;19984;-79
2022/10/27 07:31:57;;;;;;;;;;;;;;;8.63;100.00;100034.19;10068654;23;19930;-79
2022/10/27 07:35:58;;;;;;;;;;;;;;;8.80;100.00;100039.59;10106630;23;19925;-79
2022/10/27 07:40:00;;;;;;;;;;;;;;;9.00;100.00;100042.44;10134384;23;19925;-80
2022/10/27 07:44:01;;;;;;;;;;;;;;;9.19;100.00;100049.56;10104927;23;19925;-80
2022/10/27 07:48:03;;;;;;;;;;;;;;;9.41;100.00;100042.03;10101719;23;20008;-80
2022/10/27 07:52:04;;;;;;;;;;;;;;;9.66;100.00;100055.25;10132712;23;19920;-80
2022/10/27 07:56:06;;;;;;;;;;;;;;;9.98;100.00;100046.91;10135017;23;19967;-79
2022/10/27 08:00:09;;;;;;;;;;;;;;;10.32;100.00;100037.69;10129459;23;19921;-80
2022/10/27 08:04:11;;;;;;;;;;;;;;;10.66;98.90;100038.78;10132608;23;19929;-79
2022/10/27 08:08:14;;;;;;;;;;;;;;;11.01;96.99;100041.53;10134379;23;19925;-80
2022/10/27 08:12:16;;;;;;;;;;;;;;;11.42;95.34;100025.22;10109517;23;19929;-80
2022/10/27 08:16:17;;;;;;;;;;;;;;;11.84;94.44;100029.63;10113399;23;20220;-81
2022/10/27 08:20:19;;;;;;;;;;;;;;;12.17;91.44;100036.56;10180144;23;19964;-80
2022/10/27 08:24:20;;;;;;;;;;;;;;;12.51;90.13;100039.16;10179818;23;19987;-80
2022/10/27 08:28:23;;;;;;;;;;;;;;;12.85;88.97;100042.53;10155048;23;20023;-81
2022/10/27 08:32:31;;;;;;;;;;;;;;;13.16;87.49;100031.13;10176339;23;19935;-81
2022/10/27 08:37:06;;;;;;;;;;;;;;;13.52;86.42;100037.94;10181855;23;19925;-81
2022/10/27 08:41:43;;;;;;;;;;;;;;;13.89;86.10;100032.44;10181473;23;19924;-82
2022/10/27 08:46:27;;;;;;;;;;;;;;;14.23;86.21;100034.78;10216500;23;19943;-82
2022/10/27 08:51:51;;;;;;;;;;;;;;;14.64;85.07;100043.13;10020005;23;19953;-82
2022/10/27 09:31:40;;;;;;;;;;;;;;;17.47;79.80;100014.06;10172003;23;19935;-80
2022/10/27 09:35:41;;;;;;;;;;;;;;;17.64;79.64;100002.31;10274038;23;19931;-80
2022/10/27 09:39:46;;;;;;;;;;;;;;;17.80;79.57;100009.81;10249389;23;20203;-80
2022/10/27 09:43:51;;;;;;;;;;;;;;;17.93;78.82;100001.63;10241768;23;20256;-80
2022/10/27 09:48:02;;;;;;;;;;;;;;;18.07;78.87;100010.91;10230850;23;19961;-79
2022/10/27 09:52:13;;;;;;;;;;;;;;;18.18;78.68;100005.38;10230445;23;20420;-79
2022/10/27 09:56:17;;;;;;;;;;;;;;;18.26;78.69;99995.53;10229617;23;19948;-79
2022/10/27 10:00:23;;;;;;;;;;;;;;;18.35;78.16;99986.53;10221134;23;20472;-79
2022/10/27 10:04:26;;;;;;;;;;;;;;;18.46;78.33;99988.88;10203564;23;20272;-79
2022/10/27 10:08:29;;;;;;;;;;;;;;;18.45;77.91;99985.38;10204206;23;19960;-79
2022/10/27 10:12:30;;;;;;;;;;;;;;;18.42;78.20;99982.84;10227728;23;19955;-79
2022/10/27 10:16:32;;;;;;;;;;;;;;;18.49;78.55;99987.03;10218511;23;19952;-78
2022/10/27 10:20:40;;;;;;;;;;;;;;;18.57;78.67;99982.41;10223497;23;19928;-77
2022/10/27 10:24:45;;;;;;;;;;;;;;;18.67;77.67;99969.88;10198694;23;19959;-78
2022/10/27 10:28:49;;;;;;;;;;;;;;;18.79;77.32;99971.31;10221915;23;19956;-78
2022/10/27 10:32:53;;;;;;;;;;;;;;;18.91;76.71;99965.72;10245301;23;20003;-78
2022/10/27 10:36:55;;;;;;;;;;;;;;;19.04;76.68;99974.13;10273634;23;19962;-78
2022/10/27 10:40:56;;;;;;;;;;;;;;;19.18;76.50;99961.38;10273664;23;19932;-78
2022/10/27 10:45:29;;;;;;;;;;;;;;;19.32;75.98;99953.94;10272766;23;19924;-78
2022/10/27 10:49:33;;;;;;;;;;;;;;;19.43;75.69;99940.44;10270300;23;19970;-78
2022/10/27 10:53:37;;;;;;;;;;;;;;;19.54;75.15;99935.69;10273650;23;20560;-78
2022/10/27 10:57:42;;;;;;;;;;;;;;;19.68;74.86;99936.13;10321283;23;19924;-80
2022/10/27 11:01:46;;;;;;;;;;;;;;;19.86;74.92;99935.50;10321361;23;19956;-80
2022/10/27 11:06:10;;;;;;;;;;;;;;;20.04;75.16;99931.38;10302100;23;19924;-80
2022/10/27 11:10:14;;;;;;;;;;;;;;;20.28;71.67;99924.38;10304398;23;19920;-80
2022/10/27 11:14:17;;;;;;;;;;;;;;;20.48;71.30;99927.22;10305891;23;19930;-80
2022/10/27 11:18:20;;;;;;;;;;;;;;;20.72;70.43;99933.38;10309522;23;19921;-80
2022/10/27 11:22:22;;;;;;;;;;;;;;;20.92;68.58;99940.53;10309225;23;19923;-79
2022/10/27 11:26:29;;;;;;;;;;;;;;;21.08;68.03;99928.47;10304438;23;19924;-80
2022/10/27 11:30:35;;;;;;;;;;;;;;;21.18;67.91;99922.81;10303656;22;19988;-79
2022/10/27 11:34:39;;;;;;;;;;;;;;;21.31;66.96;99921.44;10306096;23;20243;-79
2022/10/27 11:38:53;;;;;;;;;;;;;;;21.30;65.17;99920.59;10303997;23;19931;-80
2022/10/27 11:43:02;;;;;;;;;;;;;;;21.36;65.43;99909.81;10304597;23;19930;-80
2022/10/27 11:47:13;;;;;;;;;;;;;;;21.42;64.96;99908.69;10299113;23;20331;-80
2022/10/27 11:51:22;;;;;;;;;;;;;;;21.51;64.76;99910.94;10308423;23;19946;-80
2022/10/27 11:55:26;;;;;;;;;;;;;;;21.60;65.26;99905.28;10316842;23;19928;-80
2022/10/27 11:59:27;;;;;;;;;;;;;;;21.72;64.82;99901.25;10332148;23;19927;-80
2022/10/27 12:03:29;;;;;;;;;;;;;;;21.76;63.88;99902.88;10279090;23;19928;-80
2022/10/27 12:08:05;;;;;;;;;;;;;;;21.96;64.22;99891.44;10303558;23;20262;-80
2022/10/27 12:12:50;;;;;;;;;;;;;;;22.09;63.82;99890.03;10287526;23;19995;-80
2022/10/27 12:17:32;;;;;;;;;;;;;;;22.16;62.55;99875.59;10284200;23;19935;-80
2022/10/27 12:22:11;;;;;;;;;;;;;;;22.25;62.39;99877.81;10264243;23;19924;-81
2022/10/27 12:26:37;;;;;;;;;;;;;;;22.27;61.62;99886.56;10285244;23;19947;-80
2022/10/27 12:30:58;;;;;;;;;;;;;;;22.30;62.09;99877.63;10268175;23;20015;-80
2022/10/27 12:35:32;;;;;;;;;;;;;;;22.28;62.44;99858.34;10283100;23;19923;-80
2022/10/27 12:40:23;;;;;;;;;;;;;;;22.38;61.93;99861.41;10281475;23;19928;-78
2022/10/27 12:44:48;;;;;;;;;;;;;;;22.38;61.35;99862.25;10273094;23;19925;-78
2022/10/27 12:49:28;;;;;;;;;;;;;;;22.41;61.31;99870.06;10121677;23;19925;-79
2022/10/27 12:54:23;;;;;;;;;;;;;;;22.44;61.51;99862.00;10082099;23;19999;-78
2022/10/27 12:59:11;;;;;;;;;;;;;;;22.48;62.22;99852.13;10102896;23;19932;-78
2022/10/27 13:03:23;;;;;;;;;;;;;;;22.44;61.18;99854.06;10086411;23;20399;-77
2022/10/27 13:07:59;;;;;;;;;;;;;;;22.50;61.46;99850.28;10236987;23;20583;-78
2022/10/27 13:12:55;;;;;;;;;;;;;;;22.58;62.34;99850.75;10272128;23;19931;-78
2022/10/27 16:33:41;;;;;;;;;;;;;;;19.07;79.64;99882.75;10229682;23;19920;-79
2022/10/27 16:38:15;;;;;;;;;;;;;;;18.77;81.32;99876.66;10255619;23;19921;-80
2022/10/27 16:43:01;;;;;;;;;;;;;;;18.53;82.89;99879.97;10227735;23;19916;-80
2022/10/27 16:47:15;;;;;;;;;;;;;;;18.35;83.60;99876.97;10188452;23;19920;-80
2022/10/27 16:51:58;;;;;;;;;;;;;;;18.16;84.07;99878.41;10051935;23;19932;-80
2022/10/27 16:56:23;;;;;;;;;;;;;;;17.93;85.51;99878.13;10091917;23;19989;-80
2022/10/27 17:01:19;;;;;;;;;;;;;;;17.78;86.53;99869.78;10096085;23;19952;-80
2022/10/27 17:06:07;;;;;;;;;;;;;;;17.64;86.73;99868.38;10091918;23;19936;-80
2022/10/27 17:10:27;;;;;;;;;;;;;;;17.53;87.50;99866.88;10231915;23;20239;-80
2022/10/27 17:14:58;;;;;;;;;;;;;;;17.50;87.51;99855.59;10202279;23;19932;-80
2022/10/27 17:19:17;;;;;;;;;;;;;;;17.38;87.59;99856.75;10223018;23;19924;-80
2022/10/27 17:23:47;;;;;;;;;;;;;;;17.26;88.45;99862.31;8495283;27;20259;-79
2022/10/27 17:27:53;;;;;;;;;;;;;;;17.17;89.44;99883.50;8457690;28;19935;-81
2022/10/27 17:32:38;;;;;;;;;;;;;;;17.06;90.21;99883.78;8414572;28;19981;-80
2022/10/27 17:36:56;;;;;;;;;;;;;;;17.02;90.33;99887.34;8413359;28;20412;-80
2022/10/27 17:41:13;;;;;;;;;;;;;;;16.94;90.60;99881.41;8415753;28;19925;-80
2022/10/27 17:45:23;;;;;;;;;;;;;;;16.91;90.58;99892.84;8408781;28;19939;-80
2022/10/27 17:49:34;;;;;;;;;;;;;;;16.87;90.94;99895.53;8408324;28;19971;-80
2022/10/27 17:53:43;;;;;;;;;;;;;;;16.82;91.37;99900.03;8412584;28;20492;-79
2022/10/27 17:57:49;;;;;;;;;;;;;;;16.73;91.25;99898.50;8416537;28;19932;-80
2022/10/27 18:01:57;;;;;;;;;;;;;;;16.69;92.06;99893.31;8395672;28;20011;-80
2022/10/27 18:06:33;;;;;;;;;;;;;;;16.61;91.78;99891.69;8415735;28;19924;-80
2022/10/27 18:10:41;;;;;;;;;;;;;;;16.62;92.49;99900.44;8411215;28;19929;-80
2022/10/27 18:15:14;;;;;;;;;;;;;;;16.69;92.55;99896.81;8414481;28;19928;-80
2022/10/27 18:19:53;;;;;;;;;;;;;;;16.70;92.89;99895.94;8407265;28;19929;-80
2022/10/27 18:23:59;;;;;;;;;;;;;;;16.77;93.00;99894.03;8426465;28;20631;-80
2022/10/27 18:28:08;;;;;;;;;;;;;;;16.77;92.09;99889.66;8414442;28;19929;-79
2022/10/27 18:32:20;;;;;;;;;;;;;;;16.69;92.24;99895.94;8397911;28;19935;-80
2022/10/27 18:36:32;;;;;;;;;;;;;;;16.60;92.29;99894.34;8384665;28;20636;-80
2022/10/27 18:41:15;;;;;;;;;;;;;;;16.50;92.57;99896.28;8399268;28;19932;-80
2022/10/27 18:45:17;;;;;;;;;;;;;;;16.49;93.09;99891.09;8378932;28;19972;-80
2022/10/27 18:49:36;;;;;;;;;;;;;;;16.47;93.01;99896.34;8387534;28;19928;-80
2022/10/27 18:54:02;;;;;;;;;;;;;;;16.36;93.21;99889.63;8386348;28;19940;-80
2022/10/27 18:58:06;;;;;;;;;;;;;;;16.27;93.77;99891.50;8409752;28;19972;-80
2022/10/27 19:02:13;;;;;;;;;;;;;;;16.24;94.24;99899.44;8360083;28;20349;-80
2022/10/27 19:06:22;;;;;;;;;;;;;;;16.19;94.59;99911.78;8392974;28;19932;-80
2022/10/27 19:10:40;;;;;;;;;;;;;;;16.11;93.96;99911.03;8386075;28;20584;-80
2022/10/27 19:15:17;;;;;;;;;;;;;;;15.97;93.72;99898.19;8379063;28;19977;-80
2022/10/27 19:19:26;;;;;;;;;;;;;;;15.88;94.18;99898.38;8392690;28;19924;-80
2022/10/27 19:24:14;;;;;;;;;;;;;;;15.79;94.60;99893.28;8390227;28;19934;-80
2022/10/27 19:28:31;;;;;;;;;;;;;;;15.67;94.59;99885.66;8402870;28;20341;-80
2022/10/27 19:32:57;;;;;;;;;;;;;;;15.57;94.95;99884.91;8386734;28;20019;-80
2022/10/27 19:37:08;;;;;;;;;;;;;;;15.53;95.06;99871.91;8389455;28;20544;-80
2022/10/27 19:41:32;;;;;;;;;;;;;;;15.51;96.14;99881.53;8391702;28;19928;-80
2022/10/27 19:45:46;;;;;;;;;;;;;;;15.37;96.81;99893.09;8372674;28;19964;-80
2022/10/27 19:49:57;;;;;;;;;;;;;;;15.28;97.14;99895.00;8393171;28;19985;-80
2022/10/27 19:54:13;;;;;;;;;;;;;;;15.27;97.60;99898.50;8404197;28;19940;-80
2022/10/27 19:58:38;;;;;;;;;;;;;;;15.22;97.99;99898.53;8391282;28;20019;-80
2022/10/27 20:02:41;;;;;;;;;;;;;;;15.09;98.31;99902.25;8380226;28;19928;-79
2022/10/27 20:06:46;;;;;;;;;;;;;;;15.08;98.21;99904.00;8367250;28;20277;-79
2022/10/27 20:10:47;;;;;;;;;;;;;;;15.05;97.92;99911.00;8405740;28;19924;-80
2022/10/27 20:14:49;;;;;;;;;;;;;;;15.00;97.90;99915.44;8390554;28;19925;-80
2022/10/27 20:18:52;;;;;;;;;;;;;;;14.95;97.86;99906.81;8376122;28;19925;-80
2022/10/27 20:22:55;;;;;;;;;;;;;;;14.89;97.82;99906.88;8371793;28;19941;-79
2022/10/27 20:26:56;;;;;;;;;;;;;;;14.85;97.75;99906.06;8383556;28;20424;-78
2022/10/27 20:31:01;;;;;;;;;;;;;;;14.80;97.61;99903.50;8374001;28;19924;-77
2022/10/27 20:35:07;;;;;;;;;;;;;;;14.74;97.40;99894.91;8382114;28;19929;-77
2022/10/27 20:39:09;;;;;;;;;;;;;;;14.64;97.57;99894.13;8382473;28;19986;-78
2022/10/27 20:43:11;;;;;;;;;;;;;;;14.63;98.26;99894.16;8359561;28;19974;-78
2022/10/27 20:47:12;;;;;;;;;;;;;;;14.58;98.43;99893.38;8377802;28;19954;-78
2022/10/27 20:51:15;;;;;;;;;;;;;;;14.54;98.47;99894.25;8388269;28;19989;-78
2022/10/27 20:55:31;;;;;;;;;;;;;;;14.51;99.02;99893.41;8384181;28;19925;-78
2022/10/27 20:59:38;;;;;;;;;;;;;;;14.46;98.79;99891.75;8382446;28;19994;-78
2022/10/27 21:03:52;;;;;;;;;;;;;;;14.44;98.86;99890.91;8367455;28;20046;-78
2022/10/27 21:08:07;;;;;;;;;;;;;;;14.38;99.04;99884.00;8399305;28;19935;-78
2022/10/27 21:12:12;;;;;;;;;;;;;;;14.35;99.22;99888.34;8379281;28;19974;-78
2022/10/27 21:16:14;;;;;;;;;;;;;;;14.37;100.00;99882.25;8374802;28;19940;-78
2022/10/27 21:20:26;;;;;;;;;;;;;;;14.33;100.00;99880.53;8370396;28;19929;-78
2022/10/27 21:24:28;;;;;;;;;;;;;;;14.29;99.94;99881.47;8365947;28;20372;-78
2022/10/27 21:28:31;;;;;;;;;;;;;;;14.23;99.45;99880.69;8381469;28;19928;-78
2022/10/27 21:32:35;;;;;;;;;;;;;;;14.21;100.00;99885.94;8355966;28;20035;-77
2022/10/27 21:36:37;;;;;;;;;;;;;;;14.20;100.00;99885.06;8376939;28;20680;-78
2022/10/27 21:40:38;;;;;;;;;;;;;;;14.18;100.00;99893.78;8385847;28;20377;-79
2022/10/27 21:44:40;;;;;;;;;;;;;;;14.17;100.00;99900.75;8392627;28;20349;-77
2022/10/27 21:48:41;;;;;;;;;;;;;;;14.17;100.00;99899.88;8368335;28;20002;-77
2022/10/27 21:52:42;;;;;;;;;;;;;;;14.14;100.00;99912.97;8389692;28;19924;-77
2022/10/27 21:56:44;;;;;;;;;;;;;;;14.13;100.00;99911.25;8378644;28;19990;-77
2022/10/27 22:00:45;;;;;;;;;;;;;;;14.11;100.00;99898.22;8383381;28;19929;-77
2022/10/27 22:04:47;;;;;;;;;;;;;;;14.10;100.00;99904.31;8396733;28;19928;-77
2022/10/27 22:08:48;;;;;;;;;;;;;;;14.11;100.00;99898.22;8372742;28;20264;-77
2022/10/27 22:12:50;;;;;;;;;;;;;;;14.13;100.00;99892.97;8378470;28;19928;-78
2022/10/27 22:16:52;;;;;;;;;;;;;;;14.14;100.00;99899.91;8365211;28;20373;-77
2022/10/27 22:20:54;;;;;;;;;;;;;;;14.14;100.00;99907.75;8386093;28;20363;-77
2022/10/27 22:24:56;;;;;;;;;;;;;;;14.13;100.00;99904.28;8407697;28;19986;-77
2022/10/27 22:28:58;;;;;;;;;;;;;;;14.18;100.00;99896.38;8387835;28;19936;-77
2022/10/27 22:32:59;;;;;;;;;;;;;;;14.17;100.00;99889.44;8374348;28;20670;-77
2022/10/27 22:37:01;;;;;;;;;;;;;;;14.18;100.00;99881.59;8371818;28;19932;-77
2022/10/27 22:41:03;;;;;;;;;;;;;;;14.21;100.00;99878.97;8387636;28;19981;-77
2022/10/27 22:45:05;;;;;;;;;;;;;;;14.23;100.00;99878.94;8380455;28;19932;-77
2022/10/27 22:49:06;;;;;;;;;;;;;;;14.20;100.00;99878.97;8401713;28;19928;-77
2022/10/27 22:53:08;;;;;;;;;;;;;;;14.21;100.00;99875.47;8369097;28;19936;-78
2022/10/27 22:57:09;;;;;;;;;;;;;;;14.23;100.00;99876.31;8384968;28;20417;-77
2022/10/27 23:01:11;;;;;;;;;;;;;;;14.23;100.00;99878.94;8364959;28;19928;-77
2022/10/27 23:05:13;;;;;;;;;;;;;;;14.20;100.00;99877.22;8370697;28;19929;-77
2022/10/27 23:09:16;;;;;;;;;;;;;;;14.19;100.00;99874.63;8385258;28;20493;-77
2022/10/27 23:13:17;;;;;;;;;;;;;;;14.15;100.00;99873.78;8387484;28;19928;-77
2022/10/27 23:17:18;;;;;;;;;;;;;;;14.13;100.00;99872.06;8382290;28;19932;-77
2022/10/27 23:21:20;;;;;;;;;;;;;;;14.12;100.00;99876.44;8385335;28;19940;-77
2022/10/27 23:25:21;;;;;;;;;;;;;;;14.12;100.00;99875.56;8387515;28;19955;-77
2022/10/27 23:29:23;;;;;;;;;;;;;;;14.13;100.00;99874.69;8368189;28;20365;-78
2022/10/27 23:33:24;;;;;;;;;;;;;;;14.13;100.00;99872.06;8797637;22;19933;-78
2022/10/27 23:37:25;;;;;;;;;;;;;;;14.14;100.00;99876.41;8300894;28;20310;-78
2022/10/27 23:41:27;;;;;;;;;;;;;;;14.15;100.00;99881.63;8300776;28;19929;-78
2022/10/27 23:45:28;;;;;;;;;;;;;;;14.17;100.00;99877.25;8306227;28;19935;-78
2022/10/27 23:49:29;;;;;;;;;;;;;;;14.18;100.00;99879.00;8296378;28;19935;-77
2022/10/27 23:53:31;;;;;;;;;;;;;;;14.19;100.00;99875.50;8312488;28;19925;-77
2022/10/27 23:57:32;;;;;;;;;;;;;;;14.19;100.00;99872.88;8309316;28;19929;-78
